Time;durP1;ratioP1;P1;durP2;ratioP2;P2;SDS_P1;SDS_P2;PMS_P1;PMS_P2;Temp;Humidity;BMP_temperature;BMP_pressure;BME280_temperature;BME280_humidity;BME280_pressure;Samples;Min_cycle;Max_cycle;Signal;HPM_P1;HPM_P2
2021/04/19 00:01:27;;;;;;;;;;;;;;;18.99;68.08;100997.34;5032608;28;1501;-61
2021/04/19 00:03:53;;;;;;;;;;;;;;;18.97;68.27;101001.16;5034857;28;1431;-62
2021/04/19 00:06:19;;;;;;;;;;;;;;;18.97;68.21;101004.66;5034301;28;1902;-62
2021/04/19 00:08:46;;;;;;;;;;;;;;;18.98;68.02;101005.50;5032420;28;1510;-61
2021/04/19 00:11:12;;;;;;;;;;;;;;;18.99;68.00;101008.06;5031036;28;1244;-62
2021/04/19 00:13:38;;;;;;;;;;;;;;;18.96;67.97;101008.34;5032764;28;1478;-61
2021/04/19 00:16:05;;;;;;;;;;;;;;;18.96;67.71;101004.78;5033480;28;1552;-61
2021/04/19 00:18:31;;;;;;;;;;;;;;;18.96;67.73;101011.03;5031873;28;1264;-62
2021/04/19 00:20:57;;;;;;;;;;;;;;;18.92;68.13;100996.19;5031395;28;1417;-62
2021/04/19 00:23:23;;;;;;;;;;;;;;;18.92;68.38;100993.50;5032430;28;1394;-62
2021/04/19 00:25:49;;;;;;;;;;;;;;;18.92;68.10;101000.66;5034778;28;1300;-61
2021/04/19 00:28:16;;;;;;;;;;;;;;;18.95;67.97;100995.91;5034419;28;1906;-61
2021/04/19 00:30:42;;;;;;;;;;;;;;;18.93;67.81;100989.84;5033506;28;1378;-61
2021/04/19 00:33:08;;;;;;;;;;;;;;;18.93;67.76;100997.88;5032916;28;1359;-62
2021/04/19 00:35:34;;;;;;;;;;;;;;;18.93;67.98;101008.59;5033050;28;1242;-61
2021/04/19 00:38:00;;;;;;;;;;;;;;;18.91;68.03;100999.00;5032157;28;1760;-62
2021/04/19 00:40:26;;;;;;;;;;;;;;;18.91;67.90;101007.88;5031436;28;1534;-62
2021/04/19 00:42:54;;;;;;;;;;;;;;;18.88;68.12;100986.72;5034297;28;1581;-62
2021/04/19 00:45:21;;;;;;;;;;;;;;;18.87;67.96;100987.66;5033947;28;1371;-62
2021/04/19 00:47:47;;;;;;;;;;;;;;;18.88;67.98;100994.75;5032200;28;1976;-62
2021/04/19 00:50:15;;;;;;;;;;;;;;;18.88;68.03;100992.06;5031902;28;1520;-61
2021/04/19 00:52:41;;;;;;;;;;;;;;;18.90;68.32;100978.50;5031940;28;1681;-62
2021/04/19 00:55:09;;;;;;;;;;;;;;;18.88;68.44;100973.31;5031657;28;1368;-62
2021/04/19 00:57:35;;;;;;;;;;;;;;;18.88;68.12;100965.28;5034524;28;1502;-62
2021/04/19 01:00:03;;;;;;;;;;;;;;;18.89;67.92;100985.72;5027619;28;1772;-61
2021/04/19 01:02:29;;;;;;;;;;;;;;;18.90;67.91;100987.44;5034024;28;1611;-62
2021/04/19 01:04:55;;;;;;;;;;;;;;;18.89;67.98;100985.72;5030899;28;1586;-62
2021/04/19 01:07:21;;;;;;;;;;;;;;;18.88;67.76;100989.38;5027579;28;1906;-62
2021/04/19 01:09:47;;;;;;;;;;;;;;;18.86;67.80;100983.28;5031621;28;1430;-62
2021/04/19 01:12:13;;;;;;;;;;;;;;;18.87;68.01;100988.50;5034615;28;1532;-61
2021/04/19 01:14:39;;;;;;;;;;;;;;;18.87;68.11;100974.28;5031588;28;1545;-62
2021/04/19 01:17:06;;;;;;;;;;;;;;;18.87;68.28;100976.94;5033544;28;1368;-61
2021/04/19 01:19:32;;;;;;;;;;;;;;;18.87;68.00;100976.94;5028878;28;1412;-61
2021/04/19 01:21:59;;;;;;;;;;;;;;;18.85;68.01;100978.91;5030996;28;1633;-61
2021/04/19 01:24:26;;;;;;;;;;;;;;;18.86;67.84;100981.47;5029909;28;1844;-62
2021/04/19 01:26:52;;;;;;;;;;;;;;;18.87;67.85;100976.94;5030859;28;1985;-61
2021/04/19 01:29:18;;;;;;;;;;;;;;;18.85;67.85;100979.75;5033531;28;1275;-62
2021/04/19 01:31:44;;;;;;;;;;;;;;;18.87;67.96;100976.94;5030152;28;1419;-62
2021/04/19 01:34:10;;;;;;;;;;;;;;;18.85;67.98;100974.41;5030749;28;1556;-61
2021/04/19 01:36:36;;;;;;;;;;;;;;;18.84;67.88;100966.47;5028291;28;1518;-61
2021/04/19 01:39:03;;;;;;;;;;;;;;;18.86;67.95;100978.78;5033507;28;1387;-61
2021/04/19 01:41:29;;;;;;;;;;;;;;;18.84;67.76;100974.53;5033492;28;1271;-61
2021/04/19 01:43:55;;;;;;;;;;;;;;;18.82;68.17;100973.78;5030345;28;1502;-61
2021/04/19 01:46:22;;;;;;;;;;;;;;;18.82;67.94;100961.28;5028965;28;1906;-61
2021/04/19 01:48:48;;;;;;;;;;;;;;;18.84;68.05;100963.81;5030104;28;1374;-61
2021/04/19 01:51:14;;;;;;;;;;;;;;;18.85;67.79;100962.84;5032483;28;1449;-61
2021/04/19 01:53:40;;;;;;;;;;;;;;;18.83;68.08;100951.41;5029856;28;1318;-62
2021/04/19 01:56:07;;;;;;;;;;;;;;;18.85;67.70;100960.16;5030849;28;1153;-61
2021/04/19 01:58:34;;;;;;;;;;;;;;;18.81;68.02;100956.88;5032627;28;1445;-61
2021/04/19 02:01:01;;;;;;;;;;;;;;;18.83;67.98;100948.72;5044083;22;2119;-46
2021/04/19 02:03:34;;;;;;;;;;;;;;;18.82;68.24;100953.25;5024472;28;1857;-46
2021/04/19 02:06:03;;;;;;;;;;;;;;;18.86;68.48;100943.97;5025503;28;1722;-47
2021/04/19 02:08:31;;;;;;;;;;;;;;;18.85;68.39;100955.63;5030667;28;1949;-47
2021/04/19 02:11:02;;;;;;;;;;;;;;;18.86;68.24;100956.47;5039770;22;3486;-61
2021/04/19 02:13:36;;;;;;;;;;;;;;;18.87;68.36;100956.34;5011127;28;1406;-62
2021/04/19 02:16:06;;;;;;;;;;;;;;;18.85;68.36;100962.84;5012009;28;1285;-62
2021/04/19 02:18:41;;;;;;;;;;;;;;;18.85;68.61;100952.97;5011776;28;1228;-62
2021/04/19 02:21:10;;;;;;;;;;;;;;;18.84;68.48;100955.75;5010737;28;1407;-62
2021/04/19 02:23:37;;;;;;;;;;;;;;;18.86;68.41;100943.09;5011753;28;1201;-62
2021/04/19 02:26:06;;;;;;;;;;;;;;;18.86;68.70;100959.16;5012166;28;1343;-61
2021/04/19 02:28:35;;;;;;;;;;;;;;;18.83;68.69;100949.56;5011799;28;1902;-62
2021/04/19 02:31:01;;;;;;;;;;;;;;;18.82;68.38;100963.97;5011775;28;1388;-62
2021/04/19 02:33:31;;;;;;;;;;;;;;;18.90;68.32;100957.94;5012098;28;1351;-61
2021/04/19 02:35:57;;;;;;;;;;;;;;;19.34;67.06;100968.50;5012070;28;1246;-62
2021/04/19 02:38:24;;;;;;;;;;;;;;;20.25;64.52;100953.31;5011992;28;1561;-62
2021/04/19 02:40:52;;;;;;;;;;;;;;;20.82;62.91;100953.50;5011936;28;1195;-61
2021/04/19 02:43:18;;;;;;;;;;;;;;;21.03;62.25;100946.13;5011810;28;1451;-62
2021/04/19 02:45:45;;;;;;;;;;;;;;;21.30;61.36;100933.72;5011582;28;1197;-61
2021/04/19 02:48:12;;;;;;;;;;;;;;;21.16;62.11;100932.34;5010797;28;1975;-62
2021/04/19 02:50:38;;;;;;;;;;;;;;;20.91;62.23;100944.59;5011800;28;1274;-61
2021/04/19 02:53:04;;;;;;;;;;;;;;;20.78;62.82;100927.91;5011273;28;1706;-62
2021/04/19 02:55:31;;;;;;;;;;;;;;;20.79;62.22;100940.34;5008083;28;1734;-62
2021/04/19 02:57:58;;;;;;;;;;;;;;;20.75;62.07;100934.44;5011510;28;1371;-62
2021/04/19 03:00:27;;;;;;;;;;;;;;;20.77;62.98;100955.75;5011262;28;1280;-62
2021/04/19 03:02:55;;;;;;;;;;;;;;;20.75;62.23;100950.56;5008588;28;1411;-62
2021/04/19 03:05:21;;;;;;;;;;;;;;;20.73;63.17;100947.16;5014643;28;1448;-62
2021/04/19 03:07:49;;;;;;;;;;;;;;;20.76;62.60;100959.47;5015152;28;1910;-61
2021/04/19 03:10:17;;;;;;;;;;;;;;;20.76;63.13;100954.09;5011895;28;1404;-62
2021/04/19 03:12:45;;;;;;;;;;;;;;;20.77;62.08;100955.75;5014865;28;1344;-61
2021/04/19 03:15:14;;;;;;;;;;;;;;;20.79;62.34;100941.22;5011936;28;1340;-62
2021/04/19 03:17:41;;;;;;;;;;;;;;;20.82;61.95;100956.19;5014633;28;1670;-62
2021/04/19 03:20:11;;;;;;;;;;;;;;;20.80;62.06;100959.03;5014300;28;1581;-62
2021/04/19 03:22:39;;;;;;;;;;;;;;;20.86;62.86;100953.06;5007946;28;1776;-63
2021/04/19 03:25:06;;;;;;;;;;;;;;;20.84;62.78;100932.72;5013504;28;1427;-62
2021/04/19 03:27:33;;;;;;;;;;;;;;;20.89;62.01;100949.28;5012581;28;1979;-61
2021/04/19 03:29:59;;;;;;;;;;;;;;;20.94;62.02;100952.34;5012572;28;1706;-62
2021/04/19 03:32:32;;;;;;;;;;;;;;;20.91;62.59;100960.72;5013630;28;1351;-62
2021/04/19 03:34:59;;;;;;;;;;;;;;;20.90;62.51;100960.88;5010959;28;1758;-62
2021/04/19 03:37:29;;;;;;;;;;;;;;;20.88;62.29;100944.88;5010344;28;1628;-63
2021/04/19 03:39:57;;;;;;;;;;;;;;;20.95;61.85;100972.00;5014682;28;1414;-62
2021/04/19 03:42:25;;;;;;;;;;;;;;;21.04;62.33;100969.31;5014423;28;1368;-62
2021/04/19 03:44:52;;;;;;;;;;;;;;;21.03;61.37;100969.47;5005933;28;1715;-62
2021/04/19 03:47:19;;;;;;;;;;;;;;;21.02;61.62;100971.31;5013940;28;1910;-62
2021/04/19 03:49:46;;;;;;;;;;;;;;;21.02;62.34;100963.22;5013079;28;1622;-62
2021/04/19 03:52:13;;;;;;;;;;;;;;;21.06;62.26;100956.56;5011770;28;1381;-61
2021/04/19 03:54:50;;;;;;;;;;;;;;;21.08;61.54;100969.88;5013417;28;1332;-62
2021/04/19 03:57:18;;;;;;;;;;;;;;;20.59;63.44;100956.50;5014703;28;1885;-62
2021/04/19 03:59:48;;;;;;;;;;;;;;;20.24;64.22;100960.53;5012016;28;1505;-61
2021/04/19 04:02:15;;;;;;;;;;;;;;;20.07;64.22;100961.19;5009123;28;1424;-61
2021/04/19 04:04:42;;;;;;;;;;;;;;;19.94;65.12;100953.41;5009080;28;1522;-61
2021/04/19 04:07:08;;;;;;;;;;;;;;;19.85;64.85;100951.53;5009824;28;1902;-62
2021/04/19 04:09:35;;;;;;;;;;;;;;;19.50;65.03;100909.00;5013914;28;1630;-61
2021/04/19 04:12:02;;;;;;;;;;;;;;;19.72;65.66;100962.50;5013568;28;1462;-62
2021/04/19 04:14:29;;;;;;;;;;;;;;;19.69;65.66;100946.63;5010050;28;1374;-61
2021/04/19 04:16:55;;;;;;;;;;;;;;;19.64;65.71;100948.91;5013977;28;1510;-62
2021/04/19 04:19:21;;;;;;;;;;;;;;;19.58;65.11;100941.41;5011900;28;1536;-62
2021/04/19 04:21:47;;;;;;;;;;;;;;;19.50;65.24;100936.69;5012921;28;1451;-61
2021/04/19 04:24:14;;;;;;;;;;;;;;;19.50;65.73;100942.06;5013861;28;1467;-62
2021/04/19 04:26:40;;;;;;;;;;;;;;;19.45;65.90;100939.75;5005448;28;1907;-62
2021/04/19 04:29:07;;;;;;;;;;;;;;;19.46;65.79;100948.69;5005584;28;1561;-62
2021/04/19 04:31:33;;;;;;;;;;;;;;;19.44;66.16;100959.53;5013542;28;1499;-62
2021/04/19 04:33:59;;;;;;;;;;;;;;;19.42;66.08;100940.06;5009932;28;1634;-61
2021/04/19 04:36:25;;;;;;;;;;;;;;;19.39;66.41;100937.63;5012420;28;1531;-61
2021/04/19 04:38:52;;;;;;;;;;;;;;;19.38;66.18;100949.34;5007204;28;1570;-61
2021/04/19 04:41:18;;;;;;;;;;;;;;;19.35;66.11;100949.59;5005933;28;1324;-59
2021/04/19 04:43:45;;;;;;;;;;;;;;;19.36;66.46;100945.94;5010073;28;1515;-56
2021/04/19 04:46:18;;;;;;;;;;;;;;;19.41;66.09;100948.22;5010657;28;1374;-62
2021/04/19 04:48:47;;;;;;;;;;;;;;;19.36;65.72;100955.81;5006704;28;1910;-62
2021/04/19 04:51:17;;;;;;;;;;;;;;;19.35;65.61;100965.69;5013217;28;1421;-61
2021/04/19 04:53:44;;;;;;;;;;;;;;;19.33;66.91;100970.34;5009045;28;1535;-61
2021/04/19 04:56:12;;;;;;;;;;;;;;;19.29;66.65;100958.19;5012211;28;1308;-61
2021/04/19 04:58:39;;;;;;;;;;;;;;;19.35;66.91;100971.06;5012761;28;1866;-60
2021/04/19 05:01:07;;;;;;;;;;;;;;;19.35;66.63;100956.81;5007918;28;1495;-60
2021/04/19 05:03:35;;;;;;;;;;;;;;;19.31;66.90;100963.41;5003666;28;1361;-60
2021/04/19 05:06:02;;;;;;;;;;;;;;;19.28;67.12;100959.19;5005749;28;1356;-60
2021/04/19 05:08:29;;;;;;;;;;;;;;;19.25;66.83;100946.88;5008995;28;1902;-60
2021/04/19 05:10:56;;;;;;;;;;;;;;;19.25;67.08;100944.19;5013068;28;1355;-61
2021/04/19 05:13:22;;;;;;;;;;;;;;;19.32;66.47;100944.53;5006759;28;1653;-59
2021/04/19 05:15:49;;;;;;;;;;;;;;;19.30;66.73;100942.94;5005323;28;1195;-62
2021/04/19 05:18:16;;;;;;;;;;;;;;;19.25;66.77;100943.34;5007755;28;1420;-62
2021/04/19 05:20:43;;;;;;;;;;;;;;;19.23;66.93;100935.41;5007912;28;1478;-60
2021/04/19 05:23:09;;;;;;;;;;;;;;;19.23;66.93;100923.84;5010227;28;1133;-57
2021/04/19 05:25:35;;;;;;;;;;;;;;;19.21;66.89;100939.22;5007387;28;1342;-64
2021/04/19 05:28:01;;;;;;;;;;;;;;;19.24;66.79;100925.56;5001218;28;1899;-60
2021/04/19 05:30:28;;;;;;;;;;;;;;;19.34;66.98;100928.28;5012330;28;1510;-63
2021/04/19 05:32:54;;;;;;;;;;;;;;;19.33;66.99;100930.13;5009720;28;1285;-61
2021/04/19 05:35:20;;;;;;;;;;;;;;;19.31;67.21;100932.06;5007791;28;1820;-66
2021/04/19 05:37:48;;;;;;;;;;;;;;;19.37;67.82;100930.69;5012068;28;1737;-61
2021/04/19 05:40:15;;;;;;;;;;;;;;;19.39;67.59;100934.09;5010438;28;1582;-64
2021/04/19 05:42:41;;;;;;;;;;;;;;;19.36;67.85;100929.84;5012087;28;1383;-61
2021/04/19 05:45:08;;;;;;;;;;;;;;;19.39;67.81;100931.41;5009024;28;1575;-59
2021/04/19 05:47:34;;;;;;;;;;;;;;;19.36;67.96;100924.50;5004625;28;1906;-58
2021/04/19 05:50:01;;;;;;;;;;;;;;;19.34;68.27;100922.91;5011027;28;1383;-61
2021/04/19 05:52:27;;;;;;;;;;;;;;;19.39;67.49;100924.22;5010676;28;1622;-70
2021/04/19 05:54:54;;;;;;;;;;;;;;;19.42;68.24;100926.63;5003733;28;1595;-62
2021/04/19 05:57:27;;;;;;;;;;;;;;;19.40;68.73;100919.72;5012380;28;1514;-61
2021/04/19 05:59:58;;;;;;;;;;;;;;;19.38;68.65;100921.69;5008943;28;1506;-63
2021/04/19 06:02:29;;;;;;;;;;;;;;;19.38;69.17;100919.84;5009592;28;1462;-64
2021/04/19 06:04:57;;;;;;;;;;;;;;;19.42;69.11;100939.22;5011131;28;1651;-58
2021/04/19 06:07:27;;;;;;;;;;;;;;;19.34;68.48;100925.59;5008735;28;1910;-63
2021/04/19 06:10:01;;;;;;;;;;;;;;;19.27;68.99;100925.28;5007089;28;1586;-60
2021/04/19 06:12:30;;;;;;;;;;;;;;;19.21;68.71;100929.34;5007282;28;1449;-59
2021/04/19 06:14:58;;;;;;;;;;;;;;;19.14;68.65;100916.59;5005832;28;1733;-60
2021/04/19 06:17:24;;;;;;;;;;;;;;;19.07;69.18;100909.09;5011779;28;1514;-59
2021/04/19 06:19:51;;;;;;;;;;;;;;;19.06;69.06;100919.97;5011780;28;1587;-58
2021/04/19 06:22:18;;;;;;;;;;;;;;;19.03;69.09;100917.53;5010497;28;1401;-59
2021/04/19 06:24:44;;;;;;;;;;;;;;;19.07;68.86;100922.50;5007319;28;1677;-61
2021/04/19 06:27:15;;;;;;;;;;;;;;;19.04;68.92;100913.91;5012043;28;1902;-59
2021/04/19 06:29:41;;;;;;;;;;;;;;;19.03;68.95;100917.53;5011040;28;1717;-59
2021/04/19 06:32:08;;;;;;;;;;;;;;;19.01;68.73;100941.78;5011161;28;1697;-58
2021/04/19 06:34:34;;;;;;;;;;;;;;;19.03;68.37;100936.31;5009629;28;1514;-61
2021/04/19 06:37:00;;;;;;;;;;;;;;;18.91;69.22;100934.69;5009359;28;1391;-60
2021/04/19 06:39:26;;;;;;;;;;;;;;;18.91;68.87;100927.47;5010460;28;1357;-70
2021/04/19 06:41:52;;;;;;;;;;;;;;;19.02;68.44;100938.13;5012877;28;1388;-59
2021/04/19 06:44:22;;;;;;;;;;;;;;;18.98;68.28;100927.78;5011981;28;1400;-62
2021/04/19 06:46:51;;;;;;;;;;;;;;;18.84;68.34;100924.47;5012699;28;1910;-59
2021/04/19 06:49:17;;;;;;;;;;;;;;;18.84;64.03;100923.59;5013084;28;1415;-60
2021/04/19 06:51:43;;;;;;;;;;;;;;;18.84;65.83;100928.97;5013776;28;1515;-59
2021/04/19 06:54:10;;;;;;;;;;;;;;;18.82;66.59;100914.84;5014533;28;1344;-59
2021/04/19 06:56:38;;;;;;;;;;;;;;;18.73;66.36;100920.97;5003162;28;1173;-63
2021/04/19 06:59:05;;;;;;;;;;;;;;;18.71;65.55;100925.63;5009836;28;1353;-68
2021/04/19 07:01:32;;;;;;;;;;;;;;;18.68;62.74;100919.53;5012583;28;1536;-63
2021/04/19 07:04:01;;;;;;;;;;;;;;;18.77;65.74;100907.19;5011907;28;1432;-62
2021/04/19 07:06:29;;;;;;;;;;;;;;;18.78;64.89;100908.91;5011973;28;1401;-64
2021/04/19 07:08:56;;;;;;;;;;;;;;;18.84;65.38;100904.84;5003392;28;1969;-64
2021/04/19 07:11:24;;;;;;;;;;;;;;;18.92;65.78;100904.19;5010010;28;1365;-63
2021/04/19 07:13:51;;;;;;;;;;;;;;;18.95;66.10;100893.22;5010850;28;1372;-69
2021/04/19 07:16:17;;;;;;;;;;;;;;;18.94;66.08;100900.44;5008338;28;1482;-70
2021/04/19 07:18:44;;;;;;;;;;;;;;;18.94;66.48;100903.13;5010758;28;1403;-64
2021/04/19 07:21:11;;;;;;;;;;;;;;;18.96;66.61;100909.19;5011743;28;1204;-69
2021/04/19 07:23:37;;;;;;;;;;;;;;;18.99;66.43;100900.88;5008320;28;1464;-62
2021/04/19 07:26:04;;;;;;;;;;;;;;;19.01;66.99;100903.41;5005276;28;1397;-60
2021/04/19 07:28:35;;;;;;;;;;;;;;;19.02;66.54;100887.22;5009757;28;1984;-60
2021/04/19 07:31:02;;;;;;;;;;;;;;;19.03;66.81;100890.75;5006872;28;1377;-60
2021/04/19 07:33:29;;;;;;;;;;;;;;;19.05;67.50;100905.69;5009197;28;1368;-69
2021/04/19 07:35:56;;;;;;;;;;;;;;;19.12;67.52;100913.19;5010222;28;1472;-59
2021/04/19 07:38:32;;;;;;;;;;;;;;;19.14;67.59;100896.03;5007165;28;1372;-60
2021/04/19 07:40:58;;;;;;;;;;;;;;;19.10;67.51;100897.28;5011080;28;1391;-62
2021/04/19 07:43:24;;;;;;;;;;;;;;;19.10;67.71;100896.41;5012075;28;1582;-66
2021/04/19 07:46:02;;;;;;;;;;;;;;;19.13;67.79;100893.47;5011916;28;1322;-66
2021/04/19 07:48:29;;;;;;;;;;;;;;;19.17;67.84;100897.59;5010822;28;1906;-64
2021/04/19 07:50:56;;;;;;;;;;;;;;;19.16;67.85;100901.22;5011622;28;1124;-69
2021/04/19 07:53:23;;;;;;;;;;;;;;;19.15;68.00;100895.03;5004769;28;1474;-64
2021/04/19 07:55:52;;;;;;;;;;;;;;;19.08;68.32;100893.88;5010739;28;1625;-64
2021/04/19 07:58:19;;;;;;;;;;;;;;;19.10;68.19;100896.41;5009332;28;1329;-64
2021/04/19 08:00:45;;;;;;;;;;;;;;;19.10;67.87;100896.41;5010563;28;1542;-65
2021/04/19 08:03:13;;;;;;;;;;;;;;;19.08;68.90;100894.72;5010796;28;1344;-66
2021/04/19 08:05:42;;;;;;;;;;;;;;;19.15;68.08;100878.94;5009167;28;1432;-65
2021/04/19 08:08:10;;;;;;;;;;;;;;;19.21;67.83;100888.28;5007810;28;1910;-71
2021/04/19 08:10:37;;;;;;;;;;;;;;;19.21;67.68;100889.13;5010451;28;1451;-61
2021/04/19 08:13:05;;;;;;;;;;;;;;;19.37;66.98;100899.38;5009668;28;1411;-62
2021/04/19 08:15:31;;;;;;;;;;;;;;;19.34;66.97;100898.78;5010406;28;1389;-56
2021/04/19 08:18:05;;;;;;;;;;;;;;;19.35;67.38;100901.34;5009772;28;1531;-65
2021/04/19 08:20:31;;;;;;;;;;;;;;;19.42;67.18;100893.63;5008730;28;1323;-58
2021/04/19 08:23:04;;;;;;;;;;;;;;;19.44;66.87;100888.97;5010134;28;1336;-55
2021/04/19 08:25:35;;;;;;;;;;;;;;;19.52;66.93;100890.94;5008844;28;1389;-59
2021/04/19 08:28:02;;;;;;;;;;;;;;;19.57;67.31;100888.72;5023528;28;1899;-62
2021/04/19 08:30:28;;;;;;;;;;;;;;;19.57;66.45;100884.19;5008511;28;1391;-58
2021/04/19 08:32:55;;;;;;;;;;;;;;;19.40;66.03;100888.38;5005111;28;1075;-58
2021/04/19 08:35:21;;;;;;;;;;;;;;;19.47;65.89;100872.59;5004848;28;1991;-63
2021/04/19 08:37:48;;;;;;;;;;;;;;;19.51;65.96;100862.44;4999819;28;1389;-58
2021/04/19 08:40:16;;;;;;;;;;;;;;;19.51;66.00;100865.97;5004873;28;1310;-58
2021/04/19 08:42:43;;;;;;;;;;;;;;;19.51;65.76;100857.06;5007395;28;1583;-63
2021/04/19 08:45:10;;;;;;;;;;;;;;;19.47;65.95;100859.16;5007576;28;1069;-58
2021/04/19 08:47:36;;;;;;;;;;;;;;;19.44;65.81;100851.41;5006682;28;1906;-62
2021/04/19 08:50:04;;;;;;;;;;;;;;;19.41;66.09;100847.16;5007243;28;1622;-58
2021/04/19 08:52:30;;;;;;;;;;;;;;;19.39;66.20;100846.44;5007348;28;1508;-62
2021/04/19 08:54:56;;;;;;;;;;;;;;;19.42;65.10;100840.81;5007595;28;1508;-59
2021/04/19 08:57:22;;;;;;;;;;;;;;;19.40;65.31;100845.47;4991190;28;1310;-58
2021/04/19 08:59:50;;;;;;;;;;;;;;;19.48;65.15;100845.63;5006515;28;1737;-59
2021/04/19 09:02:17;;;;;;;;;;;;;;;19.43;65.22;100837.13;5000334;28;1365;-59
2021/04/19 09:05:01;;;;;;;;;;;;;;;19.37;64.79;100832.31;5006925;28;1321;-59
2021/04/19 09:07:29;;;;;;;;;;;;;;;19.37;65.54;100831.47;5002977;28;2006;-57
2021/04/19 09:09:55;;;;;;;;;;;;;;;19.37;65.38;100839.53;5004993;28;1649;-59
2021/04/19 09:12:25;;;;;;;;;;;;;;;19.37;66.01;100834.16;5000419;28;1408;-60
2021/04/19 09:15:08;;;;;;;;;;;;;;;19.36;65.28;100832.44;5004786;28;1651;-60
2021/04/19 09:17:34;;;;;;;;;;;;;;;19.34;65.92;100821.88;5006814;28;1678;-61
2021/04/19 09:20:00;;;;;;;;;;;;;;;19.36;65.54;100838.69;5006616;28;1647;-60
2021/04/19 09:22:27;;;;;;;;;;;;;;;19.36;65.42;100827.97;5005732;28;1449;-67
2021/04/19 09:25:01;;;;;;;;;;;;;;;19.33;65.70;100828.22;5002967;28;1432;-67
2021/04/19 09:27:44;;;;;;;;;;;;;;;19.33;65.83;100828.22;5006918;28;1985;-63
2021/04/19 09:30:26;;;;;;;;;;;;;;;19.30;65.54;100822.28;5007556;28;1449;-62
2021/04/19 09:33:06;;;;;;;;;;;;;;;19.36;65.51;100836.00;5006974;28;1691;-60
2021/04/19 09:35:44;;;;;;;;;;;;;;;19.32;65.80;100831.91;5007402;28;1488;-61
2021/04/19 09:38:11;;;;;;;;;;;;;;;19.32;65.39;100815.81;5006827;28;1377;-61
2021/04/19 09:40:46;;;;;;;;;;;;;;;19.34;65.75;100819.19;5005565;28;1541;-68
2021/04/19 09:43:12;;;;;;;;;;;;;;;19.33;65.70;100822.00;5006485;28;1458;-62
2021/04/19 09:45:51;;;;;;;;;;;;;;;19.39;65.25;100816.94;5001767;28;1379;-69
2021/04/19 09:48:44;;;;;;;;;;;;;;;19.42;65.17;100805.97;5005889;28;1988;-61
2021/04/19 09:51:13;;;;;;;;;;;;;;;19.44;65.08;100809.34;4969047;28;1357;-60
2021/04/19 09:53:41;;;;;;;;;;;;;;;19.54;65.27;100808.53;5001044;28;1401;-63
2021/04/19 09:56:07;;;;;;;;;;;;;;;19.60;64.76;100814.19;5004846;28;1128;-62
2021/04/19 09:58:37;;;;;;;;;;;;;;;19.53;64.50;100801.47;5000250;28;1312;-59
2021/04/19 10:01:03;;;;;;;;;;;;;;;19.66;63.95;100797.53;5004127;28;1394;-57
2021/04/19 10:03:29;;;;;;;;;;;;;;;19.74;64.43;100785.31;5004694;28;1391;-58
2021/04/19 10:05:56;;;;;;;;;;;;;;;19.76;64.79;100786.84;5002870;28;1332;-58
2021/04/19 10:08:23;;;;;;;;;;;;;;;19.77;64.71;100788.53;5005455;28;1907;-56
2021/04/19 10:10:50;;;;;;;;;;;;;;;19.77;64.96;100771.59;5005730;28;1336;-59
2021/04/19 10:13:25;;;;;;;;;;;;;;;19.85;64.77;100775.25;5007817;28;1269;-59
2021/04/19 10:16:00;;;;;;;;;;;;;;;19.82;64.15;100775.53;5002772;28;1273;-63
2021/04/19 10:18:29;;;;;;;;;;;;;;;19.77;64.55;100766.22;5009549;28;1156;-67
2021/04/19 10:20:55;;;;;;;;;;;;;;;19.71;65.11;100756.03;5007706;28;1191;-63
2021/04/19 10:23:23;;;;;;;;;;;;;;;19.68;65.07;100768.72;5005635;28;1348;-62
2021/04/19 10:25:52;;;;;;;;;;;;;;;19.66;65.06;100764.50;5009750;28;1327;-63
2021/04/19 10:28:25;;;;;;;;;;;;;;;19.63;65.40;100764.75;5009923;28;1983;-61
2021/04/19 10:30:51;;;;;;;;;;;;;;;19.62;65.14;100763.09;5009838;28;1495;-63
2021/04/19 10:33:24;;;;;;;;;;;;;;;19.61;65.66;100761.38;5004816;28;1457;-62
2021/04/19 10:35:50;;;;;;;;;;;;;;;19.74;64.82;100756.63;5007908;28;1492;-66
2021/04/19 10:38:16;;;;;;;;;;;;;;;19.81;65.08;100741.63;4998366;28;954;-58
2021/04/19 10:40:42;;;;;;;;;;;;;;;19.85;65.36;100740.38;5002250;28;1432;-66
2021/04/19 10:43:11;;;;;;;;;;;;;;;19.80;65.50;100737.28;5005706;28;1440;-64
2021/04/19 10:45:38;;;;;;;;;;;;;;;19.76;65.48;100743.06;5003551;28;1318;-61
2021/04/19 10:48:20;;;;;;;;;;;;;;;19.76;64.96;100757.31;5009294;28;1918;-59
2021/04/19 10:50:47;;;;;;;;;;;;;;;19.82;65.60;100731.78;5007260;28;1251;-66
2021/04/19 10:53:13;;;;;;;;;;;;;;;19.84;65.62;100744.06;5009958;28;1119;-65
2021/04/19 10:55:39;;;;;;;;;;;;;;;19.84;65.59;100736.00;5008791;28;1503;-61
2021/04/19 10:58:05;;;;;;;;;;;;;;;19.88;65.20;100741.09;4997208;28;1544;-61
2021/04/19 11:00:32;;;;;;;;;;;;;;;19.80;65.52;100739.97;5006764;28;1558;-60
2021/04/19 11:02:58;;;;;;;;;;;;;;;19.77;65.65;100729.50;5009174;28;1420;-59
2021/04/19 11:05:25;;;;;;;;;;;;;;;19.78;65.57;100741.09;5008127;28;1443;-59
2021/04/19 11:07:51;;;;;;;;;;;;;;;19.71;65.85;100708.59;5006010;28;1996;-60
2021/04/19 11:10:19;;;;;;;;;;;;;;;19.78;65.92;100715.09;5005410;28;1265;-58
2021/04/19 11:12:59;;;;;;;;;;;;;;;19.75;65.81;100695.75;5008017;28;1384;-58
2021/04/19 11:15:34;;;;;;;;;;;;;;;19.74;65.08;100719.06;5006826;28;1371;-59
2021/04/19 11:18:01;;;;;;;;;;;;;;;19.70;65.56;100696.16;5008093;28;1109;-59
2021/04/19 11:20:28;;;;;;;;;;;;;;;19.69;65.69;100689.09;5006996;28;1356;-61
2021/04/19 11:22:54;;;;;;;;;;;;;;;19.77;66.00;100697.28;5007559;28;1199;-59
2021/04/19 11:25:22;;;;;;;;;;;;;;;19.80;65.60;100691.66;5005876;28;1212;-54
2021/04/19 11:27:49;;;;;;;;;;;;;;;19.77;65.61;100689.25;4997764;28;1985;-55
2021/04/19 11:30:25;;;;;;;;;;;;;;;19.80;65.12;100685.44;5004990;28;1120;-58
2021/04/19 11:33:02;;;;;;;;;;;;;;;19.77;65.35;100686.56;5008502;28;1093;-56
2021/04/19 11:35:34;;;;;;;;;;;;;;;19.76;65.78;100679.53;5006381;28;1443;-55
2021/04/19 11:38:00;;;;;;;;;;;;;;;19.77;65.94;100675.00;5002099;28;1289;-52
2021/04/19 11:40:27;;;;;;;;;;;;;;;19.80;65.87;100670.19;5003646;28;1429;-60
2021/04/19 11:42:54;;;;;;;;;;;;;;;19.60;65.79;100630.94;5006709;28;1285;-60
2021/04/19 11:45:21;;;;;;;;;;;;;;;19.80;65.96;100654.09;5008126;28;1128;-53
2021/04/19 11:47:47;;;;;;;;;;;;;;;19.76;65.93;100652.69;5006212;28;1914;-56
2021/04/19 11:50:14;;;;;;;;;;;;;;;19.67;64.99;100646.28;5009910;28;1353;-57
2021/04/19 11:52:44;;;;;;;;;;;;;;;19.62;64.52;100643.22;5010300;28;1356;-57
2021/04/19 11:55:11;;;;;;;;;;;;;;;19.61;64.32;100646.03;5007857;28;1572;-57
2021/04/19 11:57:37;;;;;;;;;;;;;;;19.62;64.00;100639.69;4994297;28;1104;-58
2021/04/19 12:00:03;;;;;;;;;;;;;;;19.60;63.84;100636.31;4997232;28;1875;-57
2021/04/19 12:02:29;;;;;;;;;;;;;;;19.57;64.08;100626.69;4998438;28;1702;-60
2021/04/19 12:04:55;;;;;;;;;;;;;;;19.56;64.92;100621.47;5012225;28;1437;-59
2021/04/19 12:07:22;;;;;;;;;;;;;;;19.58;65.51;100616.81;5006122;28;1985;-57
2021/04/19 12:09:49;;;;;;;;;;;;;;;19.60;65.16;100614.84;5011401;28;1452;-58
2021/04/19 12:12:15;;;;;;;;;;;;;;;19.59;65.24;100603.25;5015608;28;1280;-58
2021/04/19 12:14:41;;;;;;;;;;;;;;;19.56;65.81;100608.91;5013096;28;1654;-58
2021/04/19 12:17:07;;;;;;;;;;;;;;;19.59;65.41;100607.78;5015041;28;1618;-58
2021/04/19 12:19:33;;;;;;;;;;;;;;;19.45;64.50;100601.84;5012084;28;1804;-55
2021/04/19 12:21:59;;;;;;;;;;;;;;;19.52;65.48;100595.91;5005562;28;1272;-55
2021/04/19 12:24:26;;;;;;;;;;;;;;;19.55;65.74;100582.22;5010004;28;1464;-56
2021/04/19 12:26:52;;;;;;;;;;;;;;;19.56;65.70;100581.25;5008433;28;1061;-59
2021/04/19 12:29:18;;;;;;;;;;;;;;;19.31;66.19;100580.84;5008444;28;1906;-60
2021/04/19 12:31:44;;;;;;;;;;;;;;;19.18;65.45;100572.22;5010182;28;1341;-55
2021/04/19 12:34:10;;;;;;;;;;;;;;;19.06;64.97;100558.16;5004026;28;12098;-55
2021/04/19 12:36:36;;;;;;;;;;;;;;;18.98;65.19;100545.44;5011637;28;1400;-55
2021/04/19 12:39:03;;;;;;;;;;;;;;;19.00;65.45;100554.19;5008183;28;1101;-59
2021/04/19 12:41:30;;;;;;;;;;;;;;;18.96;64.80;100547.41;5009205;28;1591;-59
2021/04/19 12:43:56;;;;;;;;;;;;;;;18.90;64.76;100564.06;5010410;28;1670;-59
2021/04/19 12:46:25;;;;;;;;;;;;;;;18.78;65.57;100566.00;5009699;28;1595;-59
2021/04/19 12:48:51;;;;;;;;;;;;;;;18.83;64.87;100581.66;5002345;28;1981;-59
2021/04/19 12:51:17;;;;;;;;;;;;;;;16.35;56.26;100596.38;5005670;28;1437;-57